createdAt,value
2023-04-29T00:01:58.922Z,100064.00
2023-04-29T00:04:33.928Z,100115.00
2023-04-29T00:07:09.336Z,100114.00
2023-04-29T00:09:46.082Z,100117.00
2023-04-29T00:12:20.330Z,100123.00
2023-04-29T00:14:54.828Z,100115.00
2023-04-29T00:17:29.079Z,100117.00
2023-04-29T00:20:03.200Z,100110.00
2023-04-29T00:22:38.596Z,100119.00
2023-04-29T00:25:14.653Z,100102.00
2023-04-29T00:27:52.150Z,100133.00
2023-04-29T00:30:26.378Z,100082.00
2023-04-29T00:33:01.899Z,100134.00
2023-04-29T00:35:36.619Z,100144.00
2023-04-29T00:38:12.088Z,100142.00
2023-04-29T00:40:52.898Z,100147.00
2023-04-29T00:43:26.918Z,100145.00
2023-04-29T00:46:01.025Z,100147.00
2023-04-29T00:48:34.928Z,100147.00
2023-04-29T00:51:10.851Z,100155.00
2023-04-29T00:53:46.189Z,100160.00
2023-04-29T00:56:25.047Z,100159.00
2023-04-29T00:59:00.219Z,100158.00
2023-04-29T01:01:35.391Z,100169.00
2023-04-29T01:04:10.393Z,100164.00
2023-04-29T01:07:00.546Z,100167.00
2023-04-29T01:09:58.585Z,100163.00
2023-04-29T01:12:48.575Z,100180.00
2023-04-29T01:15:27.908Z,100181.00
2023-04-29T01:18:07.471Z,100182.00
2023-04-29T01:20:45.082Z,100184.00
2023-04-29T01:23:19.262Z,100183.00
2023-04-29T01:25:56.113Z,100174.00
2023-04-29T01:28:49.752Z,100193.00
2023-04-29T01:31:33.970Z,100185.00
2023-04-29T01:34:16.370Z,100193.00
2023-04-29T01:37:16.454Z,100193.00
2023-04-29T01:40:06.986Z,100198.00
2023-04-29T01:42:49.696Z,100201.00
2023-04-29T01:45:25.140Z,100201.00
2023-04-29T01:48:02.222Z,100198.00
2023-04-29T01:50:37.500Z,100201.00
2023-04-29T01:53:11.974Z,100210.00
2023-04-29T01:55:46.352Z,100205.00
2023-04-29T01:58:22.310Z,100207.00
2023-04-29T02:00:57.396Z,100216.00
2023-04-29T02:03:34.073Z,100215.00
2023-04-29T02:06:08.782Z,100212.00
2023-04-29T02:08:43.508Z,100214.00
2023-04-29T02:11:18.365Z,100221.00
2023-04-29T02:13:54.850Z,100225.00
2023-04-29T02:16:33.160Z,100231.00
2023-04-29T02:19:07.300Z,100230.00
2023-04-29T02:21:42.559Z,100227.00
2023-04-29T02:24:16.397Z,100230.00
2023-04-29T02:26:50.170Z,100231.00
2023-04-29T02:29:27.020Z,100201.00
2023-04-29T02:32:01.053Z,100251.00
2023-04-29T02:34:36.908Z,100242.00
2023-04-29T02:37:11.409Z,100250.00
2023-04-29T02:39:47.189Z,100247.00
2023-04-29T02:42:21.724Z,100249.00
2023-04-29T02:44:58.252Z,100249.00
2023-04-29T02:47:32.268Z,100260.00
2023-04-29T02:50:07.456Z,100253.00
2023-04-29T02:52:42.028Z,100263.00
2023-04-29T02:55:16.362Z,100263.00
2023-04-29T02:57:53.041Z,100270.00
2023-04-29T03:00:28.183Z,100270.00
2023-04-29T03:03:02.963Z,100236.00
2023-04-29T03:05:37.778Z,100278.00
2023-04-29T03:08:12.055Z,100272.00
2023-04-29T03:10:46.643Z,100271.00
2023-04-29T03:13:21.225Z,100279.00
2023-04-29T03:15:59.040Z,100282.00
2023-04-29T03:18:33.320Z,100279.00
2023-04-29T03:21:07.365Z,100282.00
2023-04-29T03:23:41.431Z,100284.00
2023-04-29T03:26:15.550Z,100288.00
2023-04-29T03:28:50.089Z,100286.00
2023-04-29T03:31:25.974Z,100288.00
2023-04-29T03:34:01.274Z,100280.00
2023-04-29T03:36:34.772Z,100285.00
2023-04-29T03:39:08.471Z,100288.00
2023-04-29T03:41:42.869Z,100300.00
2023-04-29T03:44:17.199Z,100295.00
2023-04-29T03:46:53.182Z,100297.00
2023-04-29T03:49:27.694Z,100301.00
2023-04-29T03:52:02.144Z,100295.00
2023-04-29T03:54:38.155Z,100302.00
2023-04-29T03:57:13.996Z,100290.00
2023-04-29T03:59:51.015Z,100287.00
2023-04-29T04:02:27.702Z,100292.00
2023-04-29T04:05:03.745Z,100294.00
2023-04-29T04:07:38.277Z,100306.00
2023-04-29T04:10:13.064Z,100309.00
2023-04-29T04:12:47.484Z,100305.00
2023-04-29T04:15:22.748Z,100271.00
2023-04-29T04:17:58.513Z,100320.00
2023-04-29T04:20:32.771Z,100317.00
2023-04-29T04:23:06.616Z,100332.00
2023-04-29T04:25:40.380Z,100334.00
2023-04-29T04:28:14.223Z,100326.00
2023-04-29T04:30:50.914Z,100336.00
2023-04-29T04:33:28.254Z,100331.00
2023-04-29T04:36:04.286Z,100343.00
2023-04-29T04:38:38.012Z,100341.00
2023-04-29T04:41:12.129Z,100339.00
2023-04-29T04:43:46.582Z,100347.00
2023-04-29T04:46:20.597Z,100343.00
2023-04-29T04:48:56.285Z,100354.00
2023-04-29T04:51:30.296Z,100351.00
2023-04-29T04:54:04.419Z,100356.00
2023-04-29T04:56:39.747Z,100358.00
2023-04-29T04:59:16.691Z,100358.00
2023-04-29T05:01:50.907Z,100362.00
2023-04-29T05:04:26.214Z,100352.00
2023-04-29T05:07:00.523Z,100374.00
2023-04-29T05:10:01.485Z,100376.00
2023-04-29T05:12:35.523Z,100373.00
2023-04-29T05:15:13.073Z,100380.00
2023-04-29T05:17:49.814Z,100381.00
2023-04-29T05:20:26.896Z,100386.00
2023-04-29T05:23:01.199Z,100386.00
2023-04-29T05:25:35.272Z,100386.00
2023-04-29T05:28:12.330Z,100396.00
2023-04-29T05:30:47.213Z,100378.00
2023-04-29T05:33:23.296Z,100395.00
2023-04-29T05:35:58.405Z,100399.00
2023-04-29T05:38:32.839Z,100407.00
2023-04-29T05:41:07.714Z,100403.00
2023-04-29T05:43:42.295Z,100410.00
2023-04-29T05:46:16.821Z,100412.00
2023-04-29T05:48:52.656Z,100414.00
2023-04-29T05:51:30.655Z,100416.00
2023-04-29T05:54:05.032Z,100421.00
2023-04-29T05:56:39.057Z,100447.00
2023-04-29T05:59:13.776Z,100408.00
2023-04-29T06:01:48.302Z,100438.00
2023-04-29T06:04:23.027Z,100437.00
2023-04-29T06:06:59.725Z,100439.00
2023-04-29T06:09:34.057Z,100449.00
2023-04-29T06:12:08.150Z,100452.00
2023-04-29T06:14:42.459Z,100450.00
2023-04-29T06:17:16.738Z,100462.00
2023-04-29T06:19:50.905Z,100461.00
2023-04-29T06:22:26.888Z,100468.00
2023-04-29T06:25:02.696Z,100460.00
2023-04-29T06:27:38.124Z,100467.00
2023-04-29T06:30:13.124Z,100467.00
2023-04-29T06:32:48.738Z,100471.00
2023-04-29T06:35:27.025Z,100468.00
2023-04-29T06:38:02.367Z,100471.00
2023-04-29T06:40:37.089Z,100479.00
2023-04-29T06:43:11.639Z,100485.00
2023-04-29T06:45:48.794Z,100483.00
2023-04-29T06:48:24.134Z,100481.00
2023-04-29T06:51:00.227Z,100495.00
2023-04-29T06:53:36.375Z,100499.00
2023-04-29T06:56:10.690Z,100488.00
2023-04-29T06:58:44.706Z,100487.00
2023-04-29T07:01:18.550Z,100509.00
2023-04-29T07:03:53.925Z,100508.00
2023-04-29T07:06:28.638Z,100513.00
2023-04-29T07:09:09.874Z,100460.00
2023-04-29T07:11:43.968Z,100515.00
2023-04-29T07:14:17.782Z,100524.00
2023-04-29T07:16:56.414Z,100512.00
2023-04-29T07:19:30.946Z,100528.00
2023-04-29T07:22:07.369Z,100542.00
2023-04-29T07:24:46.472Z,100540.00
2023-04-29T07:27:26.673Z,100507.00
2023-04-29T07:30:02.815Z,100555.00
2023-04-29T07:32:38.215Z,100546.00
2023-04-29T07:35:16.468Z,100555.00
2023-04-29T07:37:51.021Z,100566.00
2023-04-29T07:40:27.712Z,100562.00
2023-04-29T07:43:05.355Z,100575.00
2023-04-29T07:45:40.219Z,100588.00
2023-04-29T07:48:15.938Z,100574.00
2023-04-29T07:50:52.044Z,100562.00
2023-04-29T07:53:26.716Z,100586.00
2023-04-29T07:56:07.728Z,100589.00
2023-04-29T07:58:41.682Z,100583.00
2023-04-29T08:01:20.629Z,100600.00
2023-04-29T08:03:55.086Z,100595.00
2023-04-29T08:06:28.957Z,100601.00
2023-04-29T08:09:06.429Z,100598.00
2023-04-29T08:11:42.020Z,100596.00
2023-04-29T08:14:16.107Z,100613.00
2023-04-29T08:16:50.630Z,100610.00
2023-04-29T08:19:26.001Z,100598.00
2023-04-29T08:22:04.226Z,100600.00
2023-04-29T08:24:38.823Z,100621.00
2023-04-29T08:27:17.667Z,100624.00
2023-04-29T08:29:53.350Z,100622.00
2023-04-29T08:32:27.401Z,100623.00
2023-04-29T08:35:03.455Z,100618.00
2023-04-29T08:37:38.079Z,100630.00
2023-04-29T08:40:13.644Z,100629.00
2023-04-29T08:42:51.925Z,100642.00
2023-04-29T08:45:31.972Z,100644.00
2023-04-29T08:48:08.248Z,100639.00
2023-04-29T08:50:44.698Z,100644.00
2023-04-29T08:53:18.443Z,100647.00
2023-04-29T08:55:54.317Z,100656.00
2023-04-29T08:58:35.920Z,100652.00
2023-04-29T09:01:11.622Z,100648.00
2023-04-29T09:03:57.147Z,100654.00
2023-04-29T09:06:33.746Z,100654.00
2023-04-29T09:09:10.844Z,100660.00
2023-04-29T09:11:47.629Z,100662.00
2023-04-29T09:14:25.397Z,100664.00
2023-04-29T09:17:00.302Z,100668.00
2023-04-29T09:19:36.544Z,100667.00
2023-04-29T09:22:11.762Z,100675.00
2023-04-29T09:24:47.196Z,100680.00
2023-04-29T09:27:29.609Z,100679.00
2023-04-29T09:30:16.210Z,100689.00
2023-04-29T09:33:07.801Z,100675.00
2023-04-29T09:35:47.197Z,100684.00
2023-04-29T09:38:22.549Z,100695.00
2023-04-29T09:40:59.166Z,100694.00
2023-04-29T09:43:34.128Z,100703.00
2023-04-29T09:46:18.015Z,100707.00
2023-04-29T09:48:53.254Z,100707.00
2023-04-29T09:51:27.339Z,100697.00
2023-04-29T09:54:03.712Z,100714.00
2023-04-29T09:56:52.143Z,100713.00
2023-04-29T09:59:29.184Z,100691.00
2023-04-29T10:02:17.831Z,100705.00
2023-04-29T10:04:58.037Z,100703.00
2023-04-29T10:07:32.562Z,100701.00
2023-04-29T10:10:08.816Z,100713.00
2023-04-29T10:12:44.608Z,100702.00
2023-04-29T10:15:30.344Z,100722.00
2023-04-29T10:18:22.494Z,100722.00
2023-04-29T10:21:04.099Z,100701.00
2023-04-29T10:23:38.804Z,100716.00
2023-04-29T10:26:16.882Z,100718.00
2023-04-29T10:28:53.606Z,100716.00
2023-04-29T10:31:30.563Z,100729.00
2023-04-29T10:34:06.647Z,100721.00
2023-04-29T10:36:41.300Z,100730.00
2023-04-29T10:39:32.191Z,100718.00
2023-04-29T10:42:23.398Z,100741.00
2023-04-29T10:45:27.976Z,100730.00
2023-04-29T10:48:16.381Z,100732.00
2023-04-29T10:51:06.950Z,100723.00
2023-04-29T10:54:00.929Z,100738.00
2023-04-29T10:56:43.893Z,100736.00
2023-04-29T10:59:23.087Z,100735.00
2023-04-29T11:01:58.136Z,100740.00
2023-04-29T11:04:33.911Z,100739.00
2023-04-29T11:07:10.719Z,100749.00
2023-04-29T11:09:44.626Z,100746.00
2023-04-29T11:12:23.473Z,100748.00
2023-04-29T11:15:04.376Z,100743.00
2023-04-29T11:17:43.974Z,100753.00
2023-04-29T11:20:18.916Z,100755.00
2023-04-29T11:22:58.211Z,100749.00
2023-04-29T11:25:32.472Z,100701.00
2023-04-29T11:28:07.724Z,100733.00
2023-04-29T11:30:43.747Z,100743.00
2023-04-29T11:33:18.815Z,100746.00
2023-04-29T11:35:54.172Z,100750.00
2023-04-29T11:38:31.387Z,100751.00
2023-04-29T11:41:06.185Z,100749.00
2023-04-29T11:43:41.237Z,100750.00
2023-04-29T11:46:18.461Z,100748.00
2023-04-29T11:48:52.279Z,100762.00
2023-04-29T11:51:28.402Z,100759.00
2023-04-29T11:54:08.231Z,100762.00
2023-04-29T11:56:43.556Z,100757.00
2023-04-29T11:59:19.242Z,100772.00
2023-04-29T12:01:54.296Z,100747.00
2023-04-29T12:04:29.560Z,100757.00
2023-04-29T12:07:05.734Z,100755.00
2023-04-29T12:09:46.497Z,100758.00
2023-04-29T12:12:21.479Z,100754.00
2023-04-29T12:14:55.768Z,100761.00
2023-04-29T12:17:30.809Z,100755.00
2023-04-29T12:20:08.196Z,100756.00
2023-04-29T12:22:44.141Z,100748.00
2023-04-29T12:25:21.221Z,100757.00
2023-04-29T12:28:01.952Z,100761.00
2023-04-29T12:30:39.198Z,100764.00
2023-04-29T12:33:17.501Z,100760.00
2023-04-29T12:35:52.238Z,100760.00
2023-04-29T12:38:28.655Z,100764.00
2023-04-29T12:41:05.786Z,100745.00
2023-04-29T12:43:40.766Z,100778.00
2023-04-29T12:46:16.391Z,100769.00
2023-04-29T12:48:52.594Z,100772.00
2023-04-29T12:51:27.047Z,100771.00
2023-04-29T12:54:02.072Z,100757.00
2023-04-29T12:56:37.800Z,100769.00
2023-04-29T12:59:13.312Z,100766.00
2023-04-29T13:01:47.726Z,100766.00
2023-04-29T13:04:22.973Z,100768.00
2023-04-29T13:07:00.863Z,100766.00
2023-04-29T13:09:38.396Z,100721.00
2023-04-29T13:12:15.524Z,100773.00
2023-04-29T13:14:49.615Z,100775.00
2023-04-29T13:17:23.592Z,100771.00
2023-04-29T13:19:58.311Z,100773.00
2023-04-29T13:22:32.672Z,100779.00
2023-04-29T13:25:07.615Z,100765.00
2023-04-29T13:27:45.599Z,100779.00
2023-04-29T13:30:21.218Z,100774.00
2023-04-29T13:33:03.992Z,100752.00
2023-04-29T13:35:43.593Z,100779.00
2023-04-29T13:38:18.297Z,100775.00
2023-04-29T13:40:55.359Z,100787.00
2023-04-29T13:43:37.729Z,100787.00
2023-04-29T13:46:14.109Z,100784.00
2023-04-29T13:52:09.852Z,100795.00
2023-04-29T13:59:48.606Z,100790.00
2023-04-29T14:02:26.469Z,100801.00
2023-04-29T14:05:05.324Z,100749.00
2023-04-29T14:07:39.686Z,100783.00
2023-04-29T14:10:13.609Z,100789.00
2023-04-29T14:12:47.395Z,100782.00
2023-04-29T14:15:23.430Z,100796.00
2023-04-29T14:17:58.336Z,100754.00
2023-04-29T14:20:32.133Z,100751.00
2023-04-29T14:23:06.069Z,100797.00
2023-04-29T14:25:39.992Z,100798.00
2023-04-29T14:28:15.573Z,100795.00
2023-04-29T14:30:51.837Z,100796.00
2023-04-29T14:33:27.229Z,100803.00
2023-04-29T14:36:02.000Z,100806.00
2023-04-29T14:38:37.741Z,100806.00
2023-04-29T14:41:11.874Z,100816.00
2023-04-29T14:43:46.323Z,100804.00
2023-04-29T14:46:23.593Z,100815.00
2023-04-29T14:48:59.475Z,100817.00
2023-04-29T14:51:33.566Z,100818.00
2023-04-29T14:54:07.888Z,100812.00
2023-04-29T14:56:42.392Z,100825.00
2023-04-29T14:59:16.962Z,100825.00
2023-04-29T15:01:52.676Z,100823.00
2023-04-29T15:04:28.045Z,100844.00
2023-04-29T15:07:02.613Z,100829.00
2023-04-29T15:09:36.846Z,100825.00
2023-04-29T15:12:10.824Z,100839.00
2023-04-29T15:14:44.661Z,100833.00
2023-04-29T15:17:20.471Z,100839.00
2023-04-29T15:19:54.296Z,100829.00
2023-04-29T15:22:27.842Z,100843.00
2023-04-29T15:25:02.380Z,100843.00
2023-04-29T15:27:36.780Z,100843.00
2023-04-29T15:30:12.785Z,100845.00
2023-04-29T15:32:48.528Z,100837.00
2023-04-29T15:35:22.584Z,100833.00
2023-04-29T15:37:56.603Z,100830.00
2023-04-29T15:40:30.399Z,100824.00
2023-04-29T15:43:04.790Z,100833.00
2023-04-29T15:45:38.935Z,100837.00
2023-04-29T15:48:14.903Z,100838.00
2023-04-29T15:50:49.483Z,100844.00
2023-04-29T15:53:23.886Z,100797.00
2023-04-29T15:55:59.362Z,100836.00
2023-04-29T15:58:35.517Z,100846.00
2023-04-29T16:01:09.586Z,100845.00
2023-04-29T16:03:45.064Z,100851.00
2023-04-29T16:06:19.147Z,100839.00
2023-04-29T16:08:52.921Z,100856.00
2023-04-29T16:11:27.077Z,100854.00
2023-04-29T16:14:01.710Z,100859.00
2023-04-29T16:16:35.898Z,100863.00
2023-04-29T16:19:11.381Z,100862.00
2023-04-29T16:21:46.025Z,100866.00
2023-04-29T16:24:20.224Z,100863.00
2023-04-29T16:26:54.812Z,100864.00
2023-04-29T16:29:29.008Z,100856.00
2023-04-29T16:32:03.318Z,100855.00
2023-04-29T16:34:39.176Z,100860.00
2023-04-29T16:37:16.371Z,100865.00
2023-04-29T16:39:51.126Z,100861.00
2023-04-29T16:42:25.311Z,100863.00
2023-04-29T16:44:59.332Z,100836.00
2023-04-29T16:47:35.557Z,100862.00
2023-04-29T16:50:12.699Z,100862.00
2023-04-29T16:52:47.353Z,100856.00
2023-04-29T16:55:21.214Z,100838.00
2023-04-29T16:57:55.686Z,100870.00
2023-04-29T17:00:32.353Z,100871.00
2023-04-29T17:03:07.811Z,100870.00
2023-04-29T17:05:43.995Z,100866.00
2023-04-29T17:08:18.663Z,100874.00
2023-04-29T17:10:52.313Z,100871.00
2023-04-29T17:13:28.238Z,100879.00
2023-04-29T17:16:02.270Z,100877.00
2023-04-29T17:18:37.726Z,100884.00
2023-04-29T17:21:15.675Z,100874.00
2023-04-29T17:23:50.025Z,100877.00
2023-04-29T17:26:51.799Z,100873.00
2023-04-29T17:29:25.555Z,100876.00
2023-04-29T17:32:10.326Z,100885.00
2023-04-29T17:34:46.193Z,100870.00
2023-04-29T17:37:25.105Z,100882.00
2023-04-29T17:40:01.809Z,100866.00
2023-04-29T17:42:36.417Z,100881.00
2023-04-29T17:45:15.201Z,100876.00
2023-04-29T17:47:49.260Z,100883.00
2023-04-29T17:50:23.498Z,100881.00
2023-04-29T17:53:04.198Z,100884.00
2023-04-29T17:55:43.143Z,100896.00
2023-04-29T17:58:19.374Z,100885.00
2023-04-29T18:00:53.104Z,100891.00
2023-04-29T18:03:30.963Z,100891.00
2023-04-29T18:06:05.672Z,100875.00
2023-04-29T18:08:41.633Z,100898.00
2023-04-29T18:11:15.620Z,100888.00
2023-04-29T18:13:51.015Z,100892.00
2023-04-29T18:16:25.112Z,100895.00
2023-04-29T18:19:00.664Z,100896.00
2023-04-29T18:21:35.884Z,100896.00
2023-04-29T18:24:11.665Z,100891.00
2023-04-29T18:26:45.765Z,100897.00
2023-04-29T18:29:19.996Z,100893.00
2023-04-29T18:31:55.514Z,100899.00
2023-04-29T18:34:29.704Z,100895.00
2023-04-29T18:37:16.147Z,100894.00
2023-04-29T18:39:53.785Z,100908.00
2023-04-29T18:42:29.808Z,100909.00
2023-04-29T18:45:04.784Z,100882.00
2023-04-29T18:47:38.860Z,100907.00
2023-04-29T18:50:14.450Z,100886.00
2023-04-29T18:52:49.734Z,100891.00
2023-04-29T18:55:26.487Z,100904.00
2023-04-29T18:58:01.103Z,100892.00
2023-04-29T19:00:36.427Z,100912.00
2023-04-29T19:03:11.846Z,100922.00
2023-04-29T19:05:45.912Z,100908.00
2023-04-29T19:19:02.075Z,100919.00
2023-04-29T19:21:37.299Z,100929.00
2023-04-29T19:24:12.051Z,100931.00
2023-04-29T19:26:46.320Z,100936.00
2023-04-29T19:29:23.818Z,100933.00
2023-04-29T19:31:58.147Z,100935.00
2023-04-29T19:34:35.641Z,100933.00
2023-04-29T19:37:09.959Z,100939.00
2023-04-29T19:39:44.351Z,100888.00
2023-04-29T19:42:18.182Z,100935.00
2023-04-29T19:44:51.932Z,100938.00
2023-04-29T19:47:26.324Z,100937.00
2023-04-29T19:50:02.586Z,100932.00
2023-04-29T19:52:36.863Z,100931.00
2023-04-29T19:55:11.461Z,100933.00
2023-04-29T19:57:45.528Z,100912.00
2023-04-29T20:00:20.089Z,100937.00
2023-04-29T20:02:54.068Z,100936.00
2023-04-29T20:05:33.699Z,100947.00
2023-04-29T20:08:08.707Z,100952.00
2023-04-29T20:10:42.800Z,100957.00
2023-04-29T20:13:16.991Z,100958.00
2023-04-29T20:15:52.096Z,100965.00
2023-04-29T20:18:26.989Z,100969.00
2023-04-29T20:21:03.425Z,100966.00
2023-04-29T20:23:42.253Z,100973.00
2023-04-29T20:26:17.872Z,100976.00
2023-04-29T20:28:56.690Z,100981.00
2023-04-29T20:31:30.989Z,100980.00
2023-04-29T20:34:06.010Z,100979.00
2023-04-29T20:36:41.638Z,100985.00
2023-04-29T20:39:15.645Z,100985.00
2023-04-29T20:41:49.910Z,100983.00
2023-04-29T20:44:27.722Z,100985.00
2023-04-29T20:47:03.427Z,100992.00
2023-04-29T20:49:38.184Z,100985.00
2023-04-29T20:52:14.161Z,100993.00
2023-04-29T20:54:48.677Z,100986.00
2023-04-29T20:57:27.198Z,100982.00
2023-04-29T21:00:01.342Z,100990.00
2023-04-29T21:02:35.392Z,100999.00
2023-04-29T21:05:10.348Z,100996.00
2023-04-29T21:07:46.340Z,101001.00
2023-04-29T21:10:22.381Z,101002.00
2023-04-29T21:12:56.538Z,101002.00
2023-04-29T21:15:31.324Z,101012.00
2023-04-29T21:18:11.267Z,100996.00
2023-04-29T21:20:45.717Z,101006.00
2023-04-29T21:23:21.134Z,101010.00
2023-04-29T21:25:55.816Z,101002.00
2023-04-29T21:28:29.283Z,101014.00
2023-04-29T21:31:05.763Z,101020.00
2023-04-29T21:33:39.991Z,101011.00
2023-04-29T21:36:14.297Z,101030.00
2023-04-29T21:38:50.947Z,101026.00
2023-04-29T21:41:29.464Z,101028.00
2023-04-29T21:44:05.136Z,101019.00
2023-04-29T21:46:40.821Z,101028.00
2023-04-29T21:49:15.049Z,101034.00
2023-04-29T21:51:49.276Z,101035.00
2023-04-29T21:54:25.000Z,101030.00
2023-04-29T21:56:59.512Z,101037.00
2023-04-29T21:59:34.671Z,101039.00
2023-04-29T22:02:22.347Z,101042.00
2023-04-29T22:04:56.687Z,101045.00
2023-04-29T22:07:30.793Z,101051.00
2023-04-29T22:10:08.766Z,101049.00
2023-04-29T22:12:43.894Z,101052.00
2023-04-29T22:15:28.134Z,101062.00
2023-04-29T22:18:03.429Z,101042.00
2023-04-29T22:20:37.610Z,101056.00
2023-04-29T22:23:11.749Z,101054.00
2023-04-29T22:25:48.594Z,101063.00
2023-04-29T22:28:22.870Z,101057.00
2023-04-29T22:30:57.053Z,101045.00
2023-04-29T22:33:31.836Z,101071.00
2023-04-29T22:36:06.347Z,101074.00
2023-04-29T22:38:40.059Z,101072.00
2023-04-29T22:41:16.520Z,101056.00
2023-04-29T22:43:51.206Z,101059.00
2023-04-29T22:46:25.734Z,101073.00
2023-04-29T22:49:01.433Z,101054.00
2023-04-29T22:51:35.640Z,101076.00
2023-04-29T22:54:13.435Z,101082.00
2023-04-29T22:56:49.071Z,101081.00
2023-04-29T22:59:23.149Z,101079.00
2023-04-29T23:01:58.225Z,101087.00
2023-04-29T23:04:33.730Z,101088.00
2023-04-29T23:07:07.682Z,101091.00
2023-04-29T23:09:42.350Z,101085.00
2023-04-29T23:12:18.478Z,101087.00
2023-04-29T23:14:54.106Z,101091.00
2023-04-29T23:17:28.090Z,101096.00
2023-04-29T23:20:02.243Z,101091.00
2023-04-29T23:22:36.453Z,101109.00
2023-04-29T23:25:11.149Z,101100.00
2023-04-29T23:27:47.194Z,101107.00
2023-04-29T23:30:21.756Z,101108.00
2023-04-29T23:32:55.735Z,101105.00
2023-04-29T23:35:29.925Z,101107.00
2023-04-29T23:38:04.276Z,101112.00
2023-04-29T23:40:38.230Z,101106.00
2023-04-29T23:43:15.063Z,101110.00
2023-04-29T23:45:50.186Z,101113.00
2023-04-29T23:48:24.164Z,101102.00
2023-04-29T23:50:58.472Z,101108.00
2023-04-29T23:53:32.594Z,101102.00
2023-04-29T23:56:08.271Z,101102.00
2023-04-29T23:58:44.504Z,101104.00
